Time;durP1;ratioP1;P1;durP2;ratioP2;P2;SDS_P1;SDS_P2;PMS_P1;PMS_P2;Temp;Humidity;BMP_temperature;BMP_pressure;BME280_temperature;BME280_humidity;BME280_pressure;Samples;Min_cycle;Max_cycle;Signal;HPM_P1;HPM_P2
2023/09/05 19:20:40;;;;;;;5.90;2.30;;;;;;;28.62;40.00;101346.14;108828;1256;62571;-82
2023/09/05 19:23:12;;;;;;;6.00;2.70;;;;;;;28.57;39.79;101342.30;108835;1255;58421;-83
2023/09/05 19:25:39;;;;;;;4.60;2.50;;;;;;;28.44;40.02;101341.79;108726;1255;58704;-82
2023/09/05 19:28:10;;;;;;;5.50;2.70;;;;;;;28.41;39.96;101341.42;108835;1255;64048;-81
2023/09/05 19:30:40;;;;;;;5.90;2.50;;;;;;;28.35;40.21;101344.29;108851;1256;62737;-81
2023/09/05 19:33:27;;;;;;;4.50;2.60;;;;;;;28.28;40.20;101345.73;108797;1255;63723;-81
2023/09/05 19:36:15;;;;;;;4.50;2.50;;;;;;;28.34;39.96;101347.02;108900;1259;58715;-81
2023/09/05 19:39:04;;;;;;;4.40;2.80;;;;;;;28.25;40.03;101349.45;108897;1255;59417;-82
2023/09/05 19:41:52;;;;;;;6.80;2.60;;;;;;;28.16;40.16;101349.63;108884;1255;64971;-82
2023/09/05 19:44:40;;;;;;;4.90;3.00;;;;;;;28.05;40.32;101350.67;108826;1256;59804;-81
2023/09/05 19:47:29;;;;;;;5.10;2.60;;;;;;;27.93;40.54;101355.63;108795;1255;63759;-81
2023/09/05 19:50:18;;;;;;;5.40;2.70;;;;;;;27.86;40.64;101357.13;108826;1256;61045;-81
2023/09/05 19:53:07;;;;;;;4.70;3.10;;;;;;;27.80;40.80;101359.88;108844;1255;58399;-82
2023/09/05 19:55:56;;;;;;;4.30;2.70;;;;;;;27.85;40.52;101361.66;108915;1255;65092;-81
2023/09/05 19:58:45;;;;;;;4.50;2.60;;;;;;;27.78;40.45;101360.39;108817;1256;58769;-81
2023/09/05 20:01:35;;;;;;;4.60;2.90;;;;;;;27.69;40.52;101362.67;108949;1256;64910;-81
2023/09/05 20:04:23;;;;;;;5.20;2.60;;;;;;;27.64;40.74;101365.45;108884;1255;58936;-82
2023/09/05 20:07:11;;;;;;;6.10;2.50;;;;;;;27.55;40.89;101365.77;108892;1255;58760;-82
2023/09/05 20:10:01;;;;;;;3.50;2.20;;;;;;;27.49;40.94;101364.55;108821;1256;65032;-82
2023/09/05 20:12:49;;;;;;;6.10;2.90;;;;;;;27.32;41.15;101365.67;108937;1256;59864;-82
2023/09/05 20:15:38;;;;;;;4.60;2.30;;;;;;;27.24;41.36;101368.23;108901;1255;62463;-82
2023/09/05 20:18:26;;;;;;;6.10;2.50;;;;;;;27.31;41.34;101369.58;108902;1256;58647;-82
2023/09/05 20:21:15;;;;;;;4.40;2.40;;;;;;;27.40;41.33;101366.48;108952;1255;58594;-82
2023/09/05 20:24:04;;;;;;;6.50;2.50;;;;;;;27.35;41.50;101370.61;108834;1255;64961;-82
2023/09/05 20:26:53;;;;;;;6.50;2.70;;;;;;;27.31;41.64;101368.63;108838;1256;60857;-82
2023/09/05 20:29:41;;;;;;;5.90;2.50;;;;;;;27.24;41.86;101370.09;108881;1256;63870;-82
2023/09/05 20:32:30;;;;;;;4.10;2.60;;;;;;;27.11;42.17;101364.85;108858;1255;58906;-82
2023/09/05 20:35:18;;;;;;;7.40;3.00;;;;;;;27.06;42.31;101366.58;108939;1255;58307;-82
2023/09/05 20:38:07;;;;;;;5.30;2.70;;;;;;;26.93;42.66;101369.77;108916;1256;63681;-82
2023/09/05 20:40:55;;;;;;;5.80;2.60;;;;;;;26.85;43.03;101373.53;108875;1256;59806;-82
2023/09/05 20:43:47;;;;;;;6.50;3.10;;;;;;;26.76;43.27;101374.63;108868;1255;65592;-82
2023/09/05 20:46:35;;;;;;;4.80;2.80;;;;;;;26.80;43.21;101372.70;108812;1255;58857;-82
2023/09/05 20:49:23;;;;;;;5.90;2.80;;;;;;;26.80;43.19;101371.36;108930;1255;58532;-82
2023/09/05 20:52:12;;;;;;;5.10;2.40;;;;;;;26.59;43.77;101373.94;108920;1257;75888;-82
2023/09/05 20:55:00;;;;;;;9.50;3.00;;;;;;;26.54;43.92;101371.64;108797;1254;59737;-82
2023/09/05 20:57:49;;;;;;;6.70;3.10;;;;;;;26.47;44.18;101370.12;108826;1256;63717;-82
2023/09/05 21:00:37;;;;;;;4.80;2.90;;;;;;;26.35;44.69;101371.13;108793;1256;58383;-82
2023/09/05 21:03:26;;;;;;;5.10;2.60;;;;;;;26.24;45.19;101369.89;108851;1256;58484;-82
2023/09/05 21:06:14;;;;;;;4.40;2.80;;;;;;;26.17;45.62;101368.30;108915;1256;63805;-82
2023/09/05 21:09:03;;;;;;;7.00;2.80;;;;;;;26.13;45.92;101366.70;108847;1256;59779;-82
2023/09/05 21:11:51;;;;;;;4.90;2.70;;;;;;;26.11;46.43;101369.77;108815;1257;63752;-82
2023/09/05 21:14:41;;;;;;;5.10;2.90;;;;;;;26.19;46.33;101375.30;108793;1256;58405;-82
2023/09/05 21:17:30;;;;;;;4.60;2.30;;;;;;;26.03;47.01;101379.02;108628;1256;288831;-82
2023/09/05 21:20:18;;;;;;;4.70;2.60;;;;;;;25.81;47.77;101377.64;108840;1255;65028;-82
2023/09/05 21:23:07;;;;;;;4.90;3.00;;;;;;;25.67;48.17;101377.84;108861;1256;59914;-82
2023/09/05 21:25:55;;;;;;;4.00;2.60;;;;;;;25.59;48.69;101377.20;108805;1255;62669;-82
2023/09/05 21:28:44;;;;;;;6.30;3.30;;;;;;;25.75;48.21;101379.06;108857;1256;58869;-82
2023/09/05 21:31:32;;;;;;;4.20;3.00;;;;;;;25.74;48.16;101376.48;108810;1256;58220;-82
2023/09/05 21:34:20;;;;;;;6.60;2.90;;;;;;;25.70;48.53;101379.41;108895;1256;64952;-82
2023/09/05 21:37:11;;;;;;;8.80;2.70;;;;;;;25.63;48.90;101383.39;108779;1256;59848;-82
2023/09/05 21:39:59;;;;;;;6.10;3.10;;;;;;;25.50;49.28;101384.50;108751;1256;63712;-82
2023/09/05 21:42:48;;;;;;;3.70;2.70;;;;;;;25.47;49.61;101385.92;108771;1256;58913;-82
2023/09/05 21:45:36;;;;;;;5.20;2.70;;;;;;;25.42;49.89;101382.59;108805;1259;58931;-82
2023/09/05 21:48:25;;;;;;;5.70;2.60;;;;;;;25.23;50.87;101384.23;108764;1256;72493;-83
2023/09/05 21:51:14;;;;;;;5.40;2.50;;;;;;;25.27;50.99;101382.77;108838;1259;67119;-82
2023/09/05 21:54:02;;;;;;;5.60;2.80;;;;;;;25.20;51.30;101383.75;108823;1262;71847;-83
2023/09/05 21:56:50;;;;;;;5.90;2.80;;;;;;;25.14;51.74;101382.85;108794;1256;58795;-82
2023/09/05 21:59:39;;;;;;;4.60;2.80;;;;;;;25.11;51.93;101382.04;108753;1256;60118;-82
2023/09/05 22:02:27;;;;;;;5.90;3.00;;;;;;;25.06;52.31;101383.32;108810;1256;73869;-83
2023/09/05 22:05:18;;;;;;;6.40;3.00;;;;;;;24.93;52.71;101384.93;108825;1256;67151;-83
2023/09/05 22:08:06;;;;;;;5.00;2.70;;;;;;;24.81;53.51;101383.96;108795;1256;72745;-82
2023/09/05 22:10:55;;;;;;;6.20;3.00;;;;;;;24.89;53.21;101383.75;108894;1256;58761;-82
2023/09/05 22:13:43;;;;;;;5.30;2.90;;;;;;;24.86;53.35;101385.09;108836;1256;60008;-82
2023/09/05 22:16:32;;;;;;;6.00;3.00;;;;;;;24.72;54.17;101385.95;108781;1256;73907;-82
2023/09/05 22:19:28;;;;;;;7.20;2.90;;;;;;;24.83;53.91;101383.14;108763;1257;67263;-82
2023/09/05 22:22:16;;;;;;;5.20;2.90;;;;;;;24.87;53.38;101388.05;108770;1259;72787;-82
2023/09/05 22:25:05;;;;;;;4.90;2.90;;;;;;;24.69;54.25;101389.52;108775;1256;58606;-83
2023/09/05 22:27:53;;;;;;;6.80;4.20;;;;;;;24.62;54.45;101393.38;108958;1257;58761;-83
2023/09/05 22:30:42;;;;;;;7.10;2.60;;;;;;;24.68;54.48;101394.92;108889;1257;72639;-82
2023/09/05 22:33:31;;;;;;;5.30;3.20;;;;;;;24.37;56.36;101394.65;108879;1256;68371;-82
2023/09/05 22:36:22;;;;;;;6.50;2.80;;;;;;;24.29;57.52;101392.61;108800;1261;71142;-83
2023/09/05 22:39:11;;;;;;;7.10;2.90;;;;;;;24.32;57.88;101391.85;108857;1256;60584;-82
2023/09/05 22:41:59;;;;;;;5.10;2.80;;;;;;;24.38;57.39;101390.61;108834;1256;60038;-82
2023/09/05 22:44:47;;;;;;;6.60;3.00;;;;;;;24.14;58.49;101391.77;108797;1256;72654;-83
2023/09/05 22:47:36;;;;;;;6.00;3.10;;;;;;;23.99;59.34;101396.92;108784;1256;68826;-82
2023/09/05 22:50:24;;;;;;;5.60;2.90;;;;;;;23.91;59.97;101399.06;108836;1256;71411;-82
2023/09/05 22:53:12;;;;;;;5.10;3.00;;;;;;;23.69;61.26;101402.52;108792;1257;61045;-83
2023/09/05 22:56:16;;;;;;;7.90;2.90;;;;;;;23.63;61.70;101401.19;108755;1256;58815;-83
2023/09/05 22:59:06;;;;;;;6.40;2.80;;;;;;;23.55;61.93;101399.70;108765;1257;73254;-82
2023/09/05 23:01:54;;;;;;;5.50;2.70;;;;;;;23.49;62.25;101400.45;108849;1256;67112;-82
2023/09/05 23:04:42;;;;;;;7.50;2.90;;;;;;;23.48;62.24;101404.54;108733;1260;72935;-82
2023/09/05 23:07:31;;;;;;;5.40;3.30;;;;;;;23.47;62.33;101401.96;108875;1256;60639;-82
2023/09/05 23:10:19;;;;;;;9.00;3.10;;;;;;;23.36;62.74;101401.48;108830;1256;58819;-82
2023/09/05 23:13:08;;;;;;;6.10;2.90;;;;;;;23.16;64.00;101401.64;108787;1256;73859;-82
2023/09/05 23:15:56;;;;;;;8.00;3.00;;;;;;;23.37;61.97;101404.42;108867;1257;67121;-82
2023/09/05 23:18:44;;;;;;;4.00;2.70;;;;;;;23.32;61.50;101402.93;108761;1256;72664;-82
2023/09/05 23:21:33;;;;;;;4.20;2.80;;;;;;;23.12;62.69;101405.34;108864;1257;58773;-82
2023/09/05 23:24:22;;;;;;;5.40;3.00;;;;;;;23.15;63.06;101404.52;108835;1261;58804;-82
2023/09/05 23:27:10;;;;;;;6.20;3.10;;;;;;;23.09;63.24;101400.92;108823;1256;73894;-82
2023/09/05 23:29:58;;;;;;;6.10;3.20;;;;;;;22.96;64.08;101407.27;108839;1256;69412;-82
2023/09/05 23:32:49;;;;;;;4.40;2.70;;;;;;;22.97;64.15;101406.45;108816;1257;72730;-82
2023/09/05 23:35:40;;;;;;;5.00;2.70;;;;;;;22.92;64.44;101402.23;108868;1256;61261;-82
2023/09/05 23:38:29;;;;;;;5.20;3.30;;;;;;;22.91;64.41;101403.08;108793;1256;58770;-82
2023/09/05 23:41:21;;;;;;;6.20;3.30;;;;;;;22.81;64.82;101401.02;108858;1258;76128;-82
2023/09/05 23:44:09;;;;;;;5.40;3.10;;;;;;;22.64;65.80;101402.30;108824;1256;68281;-82
2023/09/05 23:46:59;;;;;;;5.10;3.10;;;;;;;22.66;65.62;101398.77;108804;1256;72665;-82
2023/09/05 23:49:49;;;;;;;5.70;2.70;;;;;;;22.53;66.96;101405.36;108751;1256;58995;-82
2023/09/05 23:52:38;;;;;;;4.90;2.80;;;;;;;22.62;66.54;101401.41;108777;1256;60051;-82
2023/09/05 23:55:26;;;;;;;5.00;3.10;;;;;;;22.56;65.74;101406.83;108886;1255;72270;-82
2023/09/05 23:58:15;;;;;;;4.80;3.10;;;;;;;22.39;67.24;101411.39;108795;1256;68680;-82
